Time;durP1;ratioP1;P1;durP2;ratioP2;P2;SDS_P1;SDS_P2;PMS_P1;PMS_P2;Temp;Humidity;BMP_temperature;BMP_pressure;BME280_temperature;BME280_humidity;BME280_pressure;Samples;Min_cycle;Max_cycle;Signal;HPM_P1;HPM_P2
2023/03/02 00:01:48;;;;;;;23.65;17.33;;;;;;;;;;4968859;28;20046;-82
2023/03/02 00:04:27;;;;;;;23.33;17.45;;;;;;;;;;4967900;28;21125;-81
2023/03/02 00:06:55;;;;;;;21.35;16.05;;;;;;;;;;4982875;28;20053;-81
2023/03/02 00:09:21;;;;;;;18.98;14.45;;;;;;;;;;4988895;28;20050;-81
2023/03/02 00:11:48;;;;;;;20.27;15.10;;;;;;;;;;4986596;28;20042;-81
2023/03/02 00:14:14;;;;;;;18.92;14.25;;;;;;;;;;4988318;28;20050;-82
2023/03/02 00:16:40;;;;;;;21.98;15.05;;;;;;;;;;4984617;28;20099;-81
2023/03/02 00:19:06;;;;;;;17.70;12.52;;;;;;;;;;4966461;28;20757;-81
2023/03/02 00:21:32;;;;;;;16.70;13.95;;;;;;;;;;4970076;28;20050;-82
2023/03/02 00:23:58;;;;;;;17.00;12.93;;;;;;;;;;4966390;28;20146;-81
2023/03/02 00:26:24;;;;;;;19.35;14.63;;;;;;;;;;4968986;28;20047;-82
2023/03/02 00:28:50;;;;;;;17.88;13.98;;;;;;;;;;4988486;28;20038;-82
2023/03/02 00:31:16;;;;;;;19.98;13.75;;;;;;;;;;4988665;28;20042;-81
2023/03/02 00:33:42;;;;;;;17.10;13.27;;;;;;;;;;4999273;28;20045;-83
2023/03/02 00:36:19;;;;;;;16.38;12.55;;;;;;;;;;4986837;28;20049;-81
2023/03/02 00:38:45;;;;;;;16.50;12.60;;;;;;;;;;4987563;28;20057;-82
2023/03/02 00:41:12;;;;;;;19.45;14.00;;;;;;;;;;4981108;28;20126;-82
2023/03/02 00:43:38;;;;;;;18.83;13.85;;;;;;;;;;4990532;28;20043;-82
2023/03/02 00:46:10;;;;;;;17.63;12.73;;;;;;;;;;4984964;28;20038;-82
2023/03/02 00:48:36;;;;;;;21.42;14.27;;;;;;;;;;4966433;28;20445;-81
2023/03/02 00:51:02;;;;;;;17.25;13.70;;;;;;;;;;4989015;28;20454;-82
2023/03/02 00:53:28;;;;;;;18.55;13.85;;;;;;;;;;4967218;28;20057;-81
2023/03/02 00:55:54;;;;;;;21.80;15.40;;;;;;;;;;4976684;28;20109;-81
2023/03/02 00:58:20;;;;;;;18.40;15.02;;;;;;;;;;4963705;28;20050;-82
2023/03/02 01:00:47;;;;;;;17.65;14.18;;;;;;;;;;4992476;28;20045;-82
2023/03/02 01:03:13;;;;;;;19.30;13.60;;;;;;;;;;4972675;28;20129;-82
2023/03/02 01:05:39;;;;;;;18.65;14.32;;;;;;;;;;4981245;28;20054;-82
2023/03/02 01:08:05;;;;;;;20.70;14.70;;;;;;;;;;4974383;28;20073;-81
2023/03/02 01:10:32;;;;;;;18.20;13.75;;;;;;;;;;4970715;28;20042;-81
2023/03/02 01:12:58;;;;;;;16.73;12.32;;;;;;;;;;4990950;28;20046;-82
2023/03/02 01:15:24;;;;;;;17.52;12.50;;;;;;;;;;4988787;28;20089;-82
2023/03/02 01:17:50;;;;;;;17.42;13.07;;;;;;;;;;4973265;28;20057;-81
2023/03/02 01:20:16;;;;;;;18.50;13.50;;;;;;;;;;4993145;28;20042;-81
2023/03/02 01:22:43;;;;;;;19.83;14.57;;;;;;;;;;4991799;28;20049;-82
2023/03/02 01:25:09;;;;;;;17.08;12.80;;;;;;;;;;4989621;28;20042;-81
2023/03/02 01:27:35;;;;;;;18.83;13.20;;;;;;;;;;4990265;28;20104;-81
2023/03/02 01:30:01;;;;;;;17.38;12.65;;;;;;;;;;4993521;28;20401;-81
2023/03/02 01:32:27;;;;;;;16.98;11.88;;;;;;;;;;4983579;28;20133;-82
2023/03/02 01:34:54;;;;;;;15.93;11.27;;;;;;;;;;4978133;28;20069;-81
2023/03/02 01:37:21;;;;;;;16.88;11.07;;;;;;;;;;4971361;28;20498;-81
2023/03/02 01:39:47;;;;;;;16.25;11.43;;;;;;;;;;4974727;28;20123;-81
2023/03/02 01:42:13;;;;;;;16.63;11.68;;;;;;;;;;4990435;28;20141;-82
2023/03/02 01:44:45;;;;;;;17.10;10.98;;;;;;;;;;4999324;28;20793;-81
2023/03/02 01:47:26;;;;;;;18.35;11.18;;;;;;;;;;4980630;28;20058;-81
2023/03/02 01:49:55;;;;;;;17.80;11.10;;;;;;;;;;4987473;28;20058;-81
2023/03/02 01:52:22;;;;;;;15.30;11.85;;;;;;;;;;4974840;28;20058;-82
2023/03/02 01:54:49;;;;;;;18.27;11.35;;;;;;;;;;4972585;28;20050;-82
2023/03/02 01:57:20;;;;;;;15.77;10.85;;;;;;;;;;4969004;28;20100;-81
2023/03/02 01:59:47;;;;;;;16.77;11.63;;;;;;;;;;4985059;28;20034;-82
2023/03/02 02:02:13;;;;;;;14.98;10.90;;;;;;;;;;4965994;28;20058;-81
2023/03/02 02:04:42;;;;;;;16.90;11.88;;;;;;;;;;4999982;28;20046;-81
2023/03/02 02:07:08;;;;;;;16.27;11.88;;;;;;;;;;4971876;28;20050;-81
2023/03/02 02:09:37;;;;;;;15.98;11.93;;;;;;;;;;4990032;28;20081;-81
2023/03/02 02:12:04;;;;;;;19.23;12.52;;;;;;;;;;4968648;28;20062;-81
2023/03/02 02:14:31;;;;;;;20.75;13.38;;;;;;;;;;4976365;28;20065;-81
2023/03/02 02:16:57;;;;;;;18.55;12.73;;;;;;;;;;4988162;28;20090;-83
2023/03/02 02:19:26;;;;;;;17.77;12.63;;;;;;;;;;4968441;28;20190;-81
2023/03/02 02:21:52;;;;;;;18.83;12.85;;;;;;;;;;4992797;28;20524;-81
2023/03/02 02:24:21;;;;;;;24.08;13.20;;;;;;;;;;4982625;28;20051;-81
2023/03/02 02:26:54;;;;;;;17.13;12.25;;;;;;;;;;4973606;28;20034;-81
2023/03/02 02:29:24;;;;;;;16.70;12.57;;;;;;;;;;4996774;28;20535;-81
2023/03/02 02:31:55;;;;;;;19.33;13.27;;;;;;;;;;4987086;28;20054;-81
2023/03/02 02:34:31;;;;;;;20.80;13.30;;;;;;;;;;4979645;28;20372;-80
2023/03/02 02:37:05;;;;;;;20.98;13.65;;;;;;;;;;4970486;28;20046;-81
2023/03/02 02:39:31;;;;;;;;;;;;;;;;;;4968524;28;20077;-81
2023/03/02 02:42:02;;;;;;;20.08;12.65;;;;;;;;;;4980359;28;20473;-84
2023/03/02 02:44:28;;;;;;;19.63;13.05;;;;;;;;;;4971032;28;20398;-82
2023/03/02 02:46:54;;;;;;;16.58;11.50;;;;;;;;;;4983297;28;20069;-81
2023/03/02 02:49:30;;;;;;;17.85;13.65;;;;;;;;;;4991455;28;20387;-81
2023/03/02 02:51:56;;;;;;;21.08;13.48;;;;;;;;;;4971535;28;20177;-81
2023/03/02 02:54:22;;;;;;;16.85;11.95;;;;;;;;;;4970081;28;20077;-81
2023/03/02 02:56:49;;;;;;;17.95;12.15;;;;;;;;;;4989742;28;20039;-81
2023/03/02 02:59:15;;;;;;;16.33;11.55;;;;;;;;;;4965103;28;20049;-81
2023/03/02 03:01:41;;;;;;;18.85;12.90;;;;;;;;;;4982710;28;20050;-81
2023/03/02 03:04:12;;;;;;;17.50;12.50;;;;;;;;;;4966684;28;20046;-81
2023/03/02 03:06:48;;;;;;;19.65;12.80;;;;;;;;;;4990098;28;20046;-81
2023/03/02 03:09:14;;;;;;;17.10;12.13;;;;;;;;;;4982762;28;20129;-81
2023/03/02 03:11:41;;;;;;;16.98;12.98;;;;;;;;;;4984818;28;20045;-81
2023/03/02 03:14:12;;;;;;;20.25;14.07;;;;;;;;;;4972629;28;20046;-81
2023/03/02 03:16:39;;;;;;;18.75;13.13;;;;;;;;;;4980819;28;20132;-81
2023/03/02 03:19:11;;;;;;;18.90;13.93;;;;;;;;;;4987290;28;20038;-81
2023/03/02 03:21:37;;;;;;;15.93;11.85;;;;;;;;;;4982779;28;20197;-81
2023/03/02 03:24:03;;;;;;;18.63;12.80;;;;;;;;;;4969052;28;20125;-81
2023/03/02 03:26:29;;;;;;;16.08;11.50;;;;;;;;;;4984709;28;20058;-81
2023/03/02 03:28:58;;;;;;;17.30;12.40;;;;;;;;;;4986463;28;20050;-82
2023/03/02 03:31:26;;;;;;;18.27;11.80;;;;;;;;;;4971688;28;20486;-81
2023/03/02 03:33:53;;;;;;;15.57;11.13;;;;;;;;;;4969740;28;20046;-81
2023/03/02 03:36:19;;;;;;;16.70;11.40;;;;;;;;;;4992071;28;20059;-81
2023/03/02 03:38:45;;;;;;;18.05;11.90;;;;;;;;;;4970715;28;20041;-81
2023/03/02 03:41:11;;;;;;;13.60;10.90;;;;;;;;;;4987625;28;20838;-81
2023/03/02 03:43:37;;;;;;;15.20;11.07;;;;;;;;;;4987241;28;20054;-81
2023/03/02 03:46:03;;;;;;;12.80;10.48;;;;;;;;;;4969423;28;20065;-81
2023/03/02 03:48:29;;;;;;;14.18;10.77;;;;;;;;;;4988446;28;20491;-81
2023/03/02 03:50:57;;;;;;;12.90;11.00;;;;;;;;;;4968385;28;20051;-81
2023/03/02 03:53:23;;;;;;;15.50;10.38;;;;;;;;;;4973726;28;20146;-81
2023/03/02 03:55:49;;;;;;;15.45;9.80;;;;;;;;;;4969133;28;20125;-81
2023/03/02 03:58:15;;;;;;;13.80;10.20;;;;;;;;;;4962319;28;20046;-81
2023/03/02 04:00:41;;;;;;;12.23;9.60;;;;;;;;;;4999105;28;20057;-81
2023/03/02 04:03:08;;;;;;;15.45;10.80;;;;;;;;;;4987178;28;20046;-81
2023/03/02 04:05:34;;;;;;;13.77;10.35;;;;;;;;;;4965860;28;20096;-81
2023/03/02 04:08:00;;;;;;;17.63;11.80;;;;;;;;;;4969277;28;20482;-81
2023/03/02 04:10:27;;;;;;;15.55;10.85;;;;;;;;;;4968999;28;20053;-81
2023/03/02 04:12:53;;;;;;;15.82;10.85;;;;;;;;;;4984220;28;20100;-82
2023/03/02 04:15:20;;;;;;;19.27;12.32;;;;;;;;;;4978455;28;20498;-82
2023/03/02 04:17:46;;;;;;;21.70;12.85;;;;;;;;;;4965695;28;20054;-81
2023/03/02 04:20:16;;;;;;;19.23;13.25;;;;;;;;;;4966183;28;20042;-81
2023/03/02 04:22:43;;;;;;;19.70;13.02;;;;;;;;;;4989513;28;20059;-81
2023/03/02 04:25:13;;;;;;;21.77;14.25;;;;;;;;;;4983096;28;20050;-84
2023/03/02 04:27:40;;;;;;;24.15;14.05;;;;;;;;;;4964664;28;20057;-80
2023/03/02 04:30:07;;;;;;;19.98;13.57;;;;;;;;;;4990087;28;20096;-81
2023/03/02 04:32:33;;;;;;;25.40;16.23;;;;;;;;;;4986393;28;20053;-81
2023/03/02 04:34:59;;;;;;;25.05;16.05;;;;;;;;;;4972776;28;20054;-81
2023/03/02 04:37:26;;;;;;;22.60;15.27;;;;;;;;;;4983138;28;20046;-80
2023/03/02 04:39:52;;;;;;;25.02;17.42;;;;;;;;;;4970486;28;20053;-80
2023/03/02 04:42:19;;;;;;;27.15;18.40;;;;;;;;;;4984922;28;20038;-81
2023/03/02 04:44:45;;;;;;;27.40;18.38;;;;;;;;;;4967219;28;20042;-81
2023/03/02 04:47:11;;;;;;;29.27;18.73;;;;;;;;;;4969515;28;20080;-80
2023/03/02 04:49:37;;;;;;;27.55;17.98;;;;;;;;;;4982451;28;20066;-81
2023/03/02 04:52:04;;;;;;;29.10;18.85;;;;;;;;;;4975559;28;20042;-80
2023/03/02 04:54:30;;;;;;;33.42;19.90;;;;;;;;;;4970220;28;20057;-80
2023/03/02 04:56:56;;;;;;;27.25;18.88;;;;;;;;;;4985198;28;20069;-80
2023/03/02 04:59:24;;;;;;;32.00;21.00;;;;;;;;;;4986056;28;20031;-81
2023/03/02 05:01:51;;;;;;;30.25;21.08;;;;;;;;;;4981502;28;20048;-80
2023/03/02 05:04:17;;;;;;;33.38;20.75;;;;;;;;;;4969762;28;20442;-81
2023/03/02 05:06:43;;;;;;;32.60;21.13;;;;;;;;;;4981138;28;20145;-80
2023/03/02 05:09:10;;;;;;;31.40;20.08;;;;;;;;;;4972922;28;20088;-80
2023/03/02 05:11:36;;;;;;;30.05;18.95;;;;;;;;;;4963285;28;20050;-80
2023/03/02 05:14:03;;;;;;;28.85;18.92;;;;;;;;;;4978578;28;20474;-80
2023/03/02 05:16:31;;;;;;;28.63;19.55;;;;;;;;;;4969813;28;20089;-81
2023/03/02 05:18:57;;;;;;;27.25;17.95;;;;;;;;;;4987123;28;20046;-82
2023/03/02 05:21:23;;;;;;;22.58;16.15;;;;;;;;;;4972445;28;20073;-81
2023/03/02 05:23:50;;;;;;;22.98;15.57;;;;;;;;;;4999602;28;20043;-80
2023/03/02 05:26:16;;;;;;;26.10;16.30;;;;;;;;;;4974578;28;20070;-80
2023/03/02 05:28:42;;;;;;;29.17;18.13;;;;;;;;;;4999186;28;20057;-81
2023/03/02 05:31:08;;;;;;;25.40;15.48;;;;;;;;;;4969938;28;20042;-81
2023/03/02 05:33:34;;;;;;;27.80;17.77;;;;;;;;;;4992602;28;20376;-81
2023/03/02 05:36:00;;;;;;;28.48;17.73;;;;;;;;;;4968992;28;20558;-80
2023/03/02 05:38:29;;;;;;;26.38;17.58;;;;;;;;;;4985069;28;20545;-80
2023/03/02 05:40:55;;;;;;;29.70;17.20;;;;;;;;;;4975238;28;20042;-81
2023/03/02 05:43:22;;;;;;;30.23;19.25;;;;;;;;;;4972259;28;20046;-81
2023/03/02 05:45:48;;;;;;;30.90;18.30;;;;;;;;;;4996949;28;20046;-81
2023/03/02 05:48:14;;;;;;;30.70;19.10;;;;;;;;;;4986278;28;20039;-80
2023/03/02 05:50:41;;;;;;;29.25;20.08;;;;;;;;;;4967749;28;20046;-80
2023/03/02 05:53:07;;;;;;;33.60;20.60;;;;;;;;;;4988046;28;20497;-80
2023/03/02 05:55:35;;;;;;;30.67;19.45;;;;;;;;;;4968308;28;20108;-80
2023/03/02 05:58:01;;;;;;;32.17;20.48;;;;;;;;;;4987744;28;20038;-81
2023/03/02 06:00:27;;;;;;;32.40;19.25;;;;;;;;;;4970663;28;20054;-80
2023/03/02 06:02:53;;;;;;;33.38;22.02;;;;;;;;;;4988400;28;20046;-80
2023/03/02 06:05:21;;;;;;;33.90;21.45;;;;;;;;;;4966910;28;20420;-80
2023/03/02 06:07:47;;;;;;;35.33;21.90;;;;;;;;;;4970340;28;20046;-80
2023/03/02 06:10:13;;;;;;;34.25;21.25;;;;;;;;;;4988477;28;20086;-80
2023/03/02 06:12:40;;;;;;;34.60;21.27;;;;;;;;;;4988557;28;20494;-80
2023/03/02 06:15:07;;;;;;;37.17;22.95;;;;;;;;;;4985563;28;20406;-81
2023/03/02 06:17:33;;;;;;;41.28;25.83;;;;;;;;;;4973825;28;20070;-81
2023/03/02 06:19:59;;;;;;;39.83;23.92;;;;;;;;;;4982755;28;20070;-81
2023/03/02 06:22:25;;;;;;;36.58;24.58;;;;;;;;;;4985065;28;20054;-81
2023/03/02 06:24:54;;;;;;;40.45;23.45;;;;;;;;;;4986951;28;20038;-81
2023/03/02 06:27:20;;;;;;;37.10;22.75;;;;;;;;;;4984919;28;20051;-80
2023/03/02 06:29:46;;;;;;;34.35;22.42;;;;;;;;;;4964608;28;20046;-81
2023/03/02 06:32:12;;;;;;;39.10;24.60;;;;;;;;;;4968502;28;20064;-81
2023/03/02 06:34:38;;;;;;;38.42;23.60;;;;;;;;;;4972867;28;20070;-80
2023/03/02 06:37:04;;;;;;;40.25;25.05;;;;;;;;;;4972536;28;20505;-81
2023/03/02 06:39:30;;;;;;;44.08;24.65;;;;;;;;;;4979695;28;20618;-81
2023/03/02 06:41:57;;;;;;;43.35;26.23;;;;;;;;;;4982365;28;20077;-81
2023/03/02 06:44:23;;;;;;;39.13;24.98;;;;;;;;;;4959680;28;20097;-81
2023/03/02 06:46:49;;;;;;;43.25;26.63;;;;;;;;;;4972472;28;20101;-81
2023/03/02 06:49:15;;;;;;;42.95;25.77;;;;;;;;;;4987726;28;20092;-81
2023/03/02 06:51:41;;;;;;;53.50;28.98;;;;;;;;;;4987201;28;20109;-80
2023/03/02 06:54:07;;;;;;;44.95;28.38;;;;;;;;;;4971565;28;20112;-81
2023/03/02 06:56:34;;;;;;;49.80;28.90;;;;;;;;;;4963796;28;20152;-81
2023/03/02 06:59:00;;;;;;;56.47;31.65;;;;;;;;;;4987159;28;20270;-81
2023/03/02 07:01:26;;;;;;;54.42;31.25;;;;;;;;;;4981710;28;20533;-81
2023/03/02 07:03:52;;;;;;;52.33;30.02;;;;;;;;;;4978358;28;20046;-81
2023/03/02 07:06:18;;;;;;;53.33;30.95;;;;;;;;;;4974226;28;20046;-80
2023/03/02 07:08:44;;;;;;;57.45;33.47;;;;;;;;;;4968731;28;20042;-81
2023/03/02 07:11:11;;;;;;;57.55;33.95;;;;;;;;;;4990852;28;20050;-81
2023/03/02 07:13:38;;;;;;;61.30;32.33;;;;;;;;;;4986189;28;20048;-81
2023/03/02 07:16:08;;;;;;;59.70;35.88;;;;;;;;;;4969556;28;20138;-82
2023/03/02 07:18:34;;;;;;;62.97;33.97;;;;;;;;;;4968720;28;20042;-81
2023/03/02 07:21:00;;;;;;;57.40;32.40;;;;;;;;;;4968171;28;20109;-81
2023/03/02 07:23:26;;;;;;;55.40;31.70;;;;;;;;;;4971901;28;20050;-80
2023/03/02 07:25:52;;;;;;;56.58;33.45;;;;;;;;;;4963345;28;20038;-81
2023/03/02 07:28:20;;;;;;;60.45;33.22;;;;;;;;;;4971421;28;20374;-81
2023/03/02 07:30:46;;;;;;;61.65;32.65;;;;;;;;;;4978657;28;20167;-81
2023/03/02 07:33:12;;;;;;;56.55;34.03;;;;;;;;;;4982516;28;20050;-82
2023/03/02 07:35:38;;;;;;;57.10;31.05;;;;;;;;;;4981088;28;20038;-81
2023/03/02 07:38:04;;;;;;;54.95;31.58;;;;;;;;;;4964702;28;20470;-83
2023/03/02 07:40:30;;;;;;;55.38;30.38;;;;;;;;;;4966781;28;20050;-81
2023/03/02 07:42:56;;;;;;;49.80;30.02;;;;;;;;;;4957290;28;20057;-81
2023/03/02 07:45:24;;;;;;;43.70;26.58;;;;;;;;;;4969363;28;20437;-80
2023/03/02 07:47:50;;;;;;;43.13;24.20;;;;;;;;;;4979433;28;20125;-80
2023/03/02 07:50:16;;;;;;;42.20;26.00;;;;;;;;;;4977404;28;20049;-82
2023/03/02 07:52:42;;;;;;;42.65;26.63;;;;;;;;;;4974827;28;20065;-81
2023/03/02 07:55:09;;;;;;;45.42;26.80;;;;;;;;;;4970072;28;20120;-81
2023/03/02 07:57:35;;;;;;;44.63;26.13;;;;;;;;;;4989805;28;20494;-81
2023/03/02 08:00:01;;;;;;;47.38;27.20;;;;;;;;;;4968153;28;20136;-81
2023/03/02 08:02:27;;;;;;;42.85;25.17;;;;;;;;;;4968022;28;20133;-80
2023/03/02 08:04:53;;;;;;;42.50;25.55;;;;;;;;;;4996656;28;20074;-82
2023/03/02 08:07:19;;;;;;;39.55;23.98;;;;;;;;;;4983486;28;20168;-82
2023/03/02 08:09:45;;;;;;;38.95;24.17;;;;;;;;;;4960429;28;20042;-81
2023/03/02 08:12:11;;;;;;;38.25;23.50;;;;;;;;;;4994672;28;20497;-82
2023/03/02 08:14:38;;;;;;;42.00;25.40;;;;;;;;;;4978976;28;20051;-83
2023/03/02 08:17:04;;;;;;;41.72;24.08;;;;;;;;;;4978084;28;20054;-84
2023/03/02 08:19:31;;;;;;;40.67;24.67;;;;;;;;;;4970115;28;20104;-81
2023/03/02 08:21:57;;;;;;;38.83;23.17;;;;;;;;;;5001016;28;20042;-81
2023/03/02 08:24:23;;;;;;;39.33;24.48;;;;;;;;;;4982823;28;20037;-81
2023/03/02 08:26:49;;;;;;;41.50;23.45;;;;;;;;;;4972761;28;20101;-82
2023/03/02 08:29:15;;;;;;;36.80;21.63;;;;;;;;;;4992017;28;20054;-81
2023/03/02 08:31:41;;;;;;;41.90;26.10;;;;;;;;;;4991677;28;20085;-82
2023/03/02 08:34:07;;;;;;;39.65;24.90;;;;;;;;;;4977035;28;20501;-82
2023/03/02 08:36:33;;;;;;;41.33;26.17;;;;;;;;;;4967480;28;20486;-82
2023/03/02 08:38:59;;;;;;;38.42;23.20;;;;;;;;;;4972374;28;20446;-81
2023/03/02 08:41:25;;;;;;;39.78;25.08;;;;;;;;;;4973334;28;20048;-81
2023/03/02 08:43:54;;;;;;;38.80;24.40;;;;;;;;;;4988093;28;20561;-81
2023/03/02 08:46:21;;;;;;;39.30;24.48;;;;;;;;;;4965295;28;20054;-81
2023/03/02 08:48:50;;;;;;;41.28;23.80;;;;;;;;;;4973782;28;20038;-81
2023/03/02 08:51:17;;;;;;;39.28;23.83;;;;;;;;;;4986212;28;20051;-81
2023/03/02 08:53:45;;;;;;;39.50;23.83;;;;;;;;;;4967990;28;20047;-81
2023/03/02 08:56:23;;;;;;;33.42;21.02;;;;;;;;;;4969740;28;20050;-79
2023/03/02 08:58:50;;;;;;;40.00;23.83;;;;;;;;;;4980870;28;20042;-81
2023/03/02 09:01:21;;;;;;;39.40;24.20;;;;;;;;;;4989374;28;20046;-81
2023/03/02 09:03:47;;;;;;;36.95;23.27;;;;;;;;;;4971726;28;20050;-81
2023/03/02 09:06:13;;;;;;;36.88;22.05;;;;;;;;;;4977258;28;20057;-81
2023/03/02 09:08:40;;;;;;;39.20;23.48;;;;;;;;;;4967180;28;20050;-76
2023/03/02 09:11:06;;;;;;;32.95;21.15;;;;;;;;;;4982761;28;20136;-77
2023/03/02 09:13:32;;;;;;;36.97;23.73;;;;;;;;;;4984103;28;20062;-76
2023/03/02 09:15:59;;;;;;;36.13;23.08;;;;;;;;;;4970693;28;20047;-76
2023/03/02 09:18:25;;;;;;;38.67;23.05;;;;;;;;;;4972726;28;20730;-78
2023/03/02 09:20:52;;;;;;;34.35;22.15;;;;;;;;;;4977195;28;20387;-77
2023/03/02 09:23:21;;;;;;;37.28;23.75;;;;;;;;;;4965702;28;20149;-78
2023/03/02 09:25:47;;;;;;;35.38;21.98;;;;;;;;;;4968178;28;20038;-77
2023/03/02 09:28:14;;;;;;;36.70;23.10;;;;;;;;;;4969400;28;20728;-77
2023/03/02 09:30:40;;;;;;;39.97;22.95;;;;;;;;;;4995972;28;20065;-79
2023/03/02 09:33:06;;;;;;;38.20;23.55;;;;;;;;;;4977862;28;20050;-77
2023/03/02 09:35:32;;;;;;;38.88;21.65;;;;;;;;;;4986820;28;20397;-77
2023/03/02 09:37:58;;;;;;;37.38;21.52;;;;;;;;;;4968799;28;20394;-78
2023/03/02 09:40:26;;;;;;;38.25;23.08;;;;;;;;;;4984614;28;20058;-78
2023/03/02 09:43:11;;;;;;;37.58;23.05;;;;;;;;;;4968332;28;20051;-78
2023/03/02 09:45:50;;;;;;;32.97;20.67;;;;;;;;;;4974177;28;20140;-78
2023/03/02 09:48:19;;;;;;;35.88;21.77;;;;;;;;;;4968520;28;20097;-78
2023/03/02 09:51:12;;;;;;;32.67;20.60;;;;;;;;;;4986506;28;20081;-79
2023/03/02 09:54:04;;;;;;;32.80;21.63;;;;;;;;;;4964866;28;20073;-80
2023/03/02 09:56:30;;;;;;;32.30;20.80;;;;;;;;;;4965437;28;20047;-81
2023/03/02 09:59:02;;;;;;;33.83;21.20;;;;;;;;;;4971327;28;20517;-81
2023/03/02 10:01:32;;;;;;;33.92;20.90;;;;;;;;;;4969014;28;20042;-81
2023/03/02 10:04:06;;;;;;;33.45;20.98;;;;;;;;;;4970688;28;20582;-81
2023/03/02 10:06:32;;;;;;;33.15;20.65;;;;;;;;;;4967328;28;20046;-80
2023/03/02 10:08:58;;;;;;;31.85;19.77;;;;;;;;;;4985262;28;20355;-80
2023/03/02 10:11:42;;;;;;;35.42;19.40;;;;;;;;;;4965992;28;21753;-80
2023/03/02 10:14:10;;;;;;;;;;;;;;;;;;4964137;28;20046;-81
2023/03/02 10:16:40;;;;;;;31.65;19.52;;;;;;;;;;4983880;28;20090;-80
2023/03/02 10:19:13;;;;;;;32.90;20.35;;;;;;;;;;4986021;28;20047;-81
2023/03/02 10:21:40;;;;;;;32.30;20.70;;;;;;;;;;4984520;28;20085;-79
2023/03/02 10:24:06;;;;;;;33.05;19.58;;;;;;;;;;4982411;28;20042;-80
2023/03/02 10:26:43;;;;;;;36.42;20.88;;;;;;;;;;4985159;28;20097;-80
2023/03/02 10:29:09;;;;;;;29.20;18.98;;;;;;;;;;4965011;28;20433;-80
2023/03/02 10:31:37;;;;;;;31.70;19.08;;;;;;;;;;4979500;28;20049;-80
2023/03/02 10:34:03;;;;;;;31.83;19.25;;;;;;;;;;4984650;28;20487;-80
2023/03/02 10:36:31;;;;;;;34.47;21.15;;;;;;;;;;4967673;28;20051;-81
2023/03/02 10:38:59;;;;;;;33.97;20.63;;;;;;;;;;4997419;28;20043;-80
2023/03/02 10:41:28;;;;;;;31.30;20.52;;;;;;;;;;4985415;28;20047;-80
2023/03/02 10:44:03;;;;;;;30.00;18.67;;;;;;;;;;4982110;28;20043;-80
2023/03/02 10:46:43;;;;;;;28.35;18.38;;;;;;;;;;4974541;28;20042;-80
2023/03/02 10:49:29;;;;;;;30.27;18.73;;;;;;;;;;4971331;28;20125;-79
2023/03/02 10:52:15;;;;;;;28.48;16.50;;;;;;;;;;4983144;28;20157;-81
2023/03/02 10:54:41;;;;;;;26.50;15.73;;;;;;;;;;4988167;28;20042;-81
2023/03/02 10:57:27;;;;;;;27.83;16.73;;;;;;;;;;4967429;28;20042;-75
2023/03/02 10:59:57;;;;;;;29.50;15.70;;;;;;;;;;4978913;28;20520;-75
2023/03/02 11:02:26;;;;;;;28.25;15.05;;;;;;;;;;4975353;28;20053;-76
2023/03/02 11:04:56;;;;;;;28.08;17.38;;;;;;;;;;4986189;28;20034;-77
2023/03/02 11:07:23;;;;;;;28.75;17.42;;;;;;;;;;4959234;28;20078;-77
2023/03/02 11:10:00;;;;;;;28.13;17.27;;;;;;;;;;4986621;28;20046;-77
2023/03/02 11:12:27;;;;;;;27.92;16.65;;;;;;;;;;4968213;28;20092;-78
2023/03/02 11:15:05;;;;;;;27.45;17.25;;;;;;;;;;4991660;28;20053;-77
2023/03/02 11:17:36;;;;;;;31.08;17.98;;;;;;;;;;4968479;28;20039;-79
2023/03/02 11:20:03;;;;;;;29.58;18.92;;;;;;;;;;4964397;28;20057;-78
2023/03/02 11:22:40;;;;;;;28.40;18.58;;;;;;;;;;4963921;28;22040;-82
2023/03/02 11:25:12;;;;;;;28.70;17.40;;;;;;;;;;4970427;28;20053;-80
2023/03/02 11:27:40;;;;;;;29.15;17.88;;;;;;;;;;4982902;28;20054;-79
2023/03/02 11:30:12;;;;;;;26.70;16.65;;;;;;;;;;4978097;28;20128;-80
2023/03/02 11:32:56;;;;;;;26.50;18.50;;;;;;;;;;4976167;28;20057;-80
2023/03/02 11:35:32;;;;;;;27.52;17.00;;;;;;;;;;4975113;28;20049;-80
2023/03/02 11:38:04;;;;;;;29.98;17.48;;;;;;;;;;4962441;28;20046;-81
2023/03/02 11:40:45;;;;;;;30.02;16.88;;;;;;;;;;4984806;28;20042;-80
2023/03/02 11:43:12;;;;;;;27.98;16.10;;;;;;;;;;4983397;28;20042;-81
2023/03/02 11:45:46;;;;;;;29.70;15.77;;;;;;;;;;4985792;28;20398;-80
2023/03/02 11:48:22;;;;;;;30.50;16.08;;;;;;;;;;4980913;28;20081;-80
2023/03/02 11:50:56;;;;;;;29.35;15.60;;;;;;;;;;4974953;28;20046;-81
2023/03/02 11:53:26;;;;;;;31.63;16.17;;;;;;;;;;4982739;28;20057;-81
2023/03/02 11:55:52;;;;;;;32.60;14.95;;;;;;;;;;4975925;28;20500;-81
2023/03/02 11:58:20;;;;;;;29.75;15.63;;;;;;;;;;4963609;28;20050;-81
2023/03/02 12:00:47;;;;;;;30.08;15.20;;;;;;;;;;4960048;28;20046;-81
2023/03/02 12:03:16;;;;;;;26.65;15.07;;;;;;;;;;4984388;28;20080;-82
2023/03/02 12:05:44;;;;;;;25.20;14.23;;;;;;;;;;4970389;28;20189;-77
2023/03/02 12:08:19;;;;;;;31.60;15.25;;;;;;;;;;4978875;28;20105;-78
2023/03/02 12:10:59;;;;;;;25.88;14.52;;;;;;;;;;4964201;28;20046;-76
2023/03/02 12:13:27;;;;;;;25.40;13.85;;;;;;;;;;4967634;28;20581;-77
2023/03/02 12:15:55;;;;;;;28.58;14.45;;;;;;;;;;4982957;28;20062;-76
2023/03/02 12:18:21;;;;;;;26.55;14.88;;;;;;;;;;4982562;28;20045;-77
2023/03/02 12:21:05;;;;;;;29.50;14.68;;;;;;;;;;4983961;28;20053;-81
2023/03/02 12:23:32;;;;;;;34.53;16.13;;;;;;;;;;4964761;28;20050;-81
2023/03/02 12:26:03;;;;;;;32.15;14.45;;;;;;;;;;4979899;28;20057;-82
2023/03/02 12:28:34;;;;;;;29.08;14.30;;;;;;;;;;4980881;28;20529;-81
2023/03/02 12:31:18;;;;;;;29.05;14.90;;;;;;;;;;4980525;28;20049;-81
2023/03/02 12:33:48;;;;;;;26.20;14.88;;;;;;;;;;4969308;28;20498;-81
2023/03/02 12:36:24;;;;;;;26.02;14.38;;;;;;;;;;4995440;28;20054;-81
2023/03/02 12:38:55;;;;;;;30.10;13.82;;;;;;;;;;4991268;28;20050;-81
2023/03/02 12:41:29;;;;;;;26.95;13.85;;;;;;;;;;4964173;28;20047;-81
2023/03/02 12:44:14;;;;;;;22.48;12.32;;;;;;;;;;4979088;28;20047;-80
2023/03/02 12:46:44;;;;;;;22.95;13.13;;;;;;;;;;4969275;28;20042;-81
2023/03/02 12:49:14;;;;;;;26.10;14.35;;;;;;;;;;4960042;28;20502;-80
2023/03/02 12:51:59;;;;;;;23.63;12.40;;;;;;;;;;4966447;28;20058;-81
2023/03/02 12:54:33;;;;;;;24.25;12.38;;;;;;;;;;4984724;28;20046;-81
2023/03/02 12:57:16;;;;;;;24.52;13.60;;;;;;;;;;4966973;28;20136;-81
2023/03/02 12:59:42;;;;;;;20.53;9.07;;;;;;;;;;4963607;28;20058;-81
2023/03/02 13:02:11;;;;;;;19.70;11.93;;;;;;;;;;4961773;28;20400;-82
2023/03/02 13:04:37;;;;;;;22.58;13.45;;;;;;;;;;4988635;28;20046;-81
2023/03/02 13:07:04;;;;;;;19.08;11.63;;;;;;;;;;4984914;28;20038;-81
2023/03/02 13:09:30;;;;;;;18.17;11.40;;;;;;;;;;4963101;28;20138;-81
2023/03/02 13:11:56;;;;;;;17.13;10.70;;;;;;;;;;4978009;28;20563;-80
2023/03/02 13:14:26;;;;;;;22.58;10.10;;;;;;;;;;4981944;28;20104;-80
2023/03/02 13:16:53;;;;;;;14.43;8.90;;;;;;;;;;4981138;28;20121;-80
2023/03/02 13:19:20;;;;;;;19.77;9.02;;;;;;;;;;4960596;28;20054;-81
2023/03/02 13:21:46;;;;;;;14.15;8.57;;;;;;;;;;4967938;28;20398;-80
2023/03/02 13:24:31;;;;;;;13.15;8.77;;;;;;;;;;4964678;28;20120;-75
2023/03/02 13:26:58;;;;;;;12.20;8.95;;;;;;;;;;4960218;28;20057;-76
2023/03/02 13:29:25;;;;;;;12.30;7.70;;;;;;;;;;4974540;28;20145;-77
2023/03/02 13:31:52;;;;;;;11.10;7.47;;;;;;;;;;4994709;28;20390;-77
2023/03/02 13:34:21;;;;;;;12.27;8.25;;;;;;;;;;4990743;28;20056;-77
2023/03/02 13:36:47;;;;;;;11.38;7.38;;;;;;;;;;4983572;28;20042;-78
2023/03/02 13:39:20;;;;;;;10.68;7.28;;;;;;;;;;4985944;28;20046;-77
2023/03/02 13:41:46;;;;;;;;;;;;;;;;;;5000232;28;20043;-79
2023/03/02 13:44:20;;;;;;;10.75;7.55;;;;;;;;;;4994372;28;19925;-79
2023/03/02 13:46:46;;;;;;;;;;;;;;;;;;4994465;28;20422;-78
2023/03/02 13:49:12;;;;;;;9.63;7.15;;;;;;;;;;4979641;28;19921;-74
2023/03/02 13:51:45;;;;;;;10.02;7.13;;;;;;;;;;4968480;28;20568;-74
2023/03/02 13:54:14;;;;;;;8.50;6.97;;;;;;;;;;4985348;28;20053;-75
2023/03/02 13:56:43;;;;;;;9.45;7.55;;;;;;;;;;4998298;28;20042;-74
2023/03/02 13:59:12;;;;;;;9.38;7.30;;;;;;;;;;4984789;28;20042;-75
2023/03/02 14:01:40;;;;;;;8.52;7.13;;;;;;;;;;4973089;28;20050;-76
2023/03/02 14:04:06;;;;;;;9.35;6.90;;;;;;;;;;4983975;28;21314;-80
2023/03/02 14:06:32;;;;;;;10.57;7.50;;;;;;;;;;4984158;28;20043;-80
2023/03/02 14:08:58;;;;;;;8.82;7.07;;;;;;;;;;4983350;28;20054;-81
2023/03/02 14:11:24;;;;;;;12.23;7.45;;;;;;;;;;4990442;28;20050;-83
2023/03/02 14:13:54;;;;;;;9.45;7.65;;;;;;;;;;4980597;28;20054;-81
2023/03/02 14:16:20;;;;;;;8.85;7.22;;;;;;;;;;4970493;28;20125;-81
2023/03/02 14:18:47;;;;;;;8.63;7.15;;;;;;;;;;4982820;28;20406;-81
2023/03/02 14:21:17;;;;;;;8.13;6.47;;;;;;;;;;4971842;28;20050;-81
2023/03/02 14:23:44;;;;;;;9.07;7.20;;;;;;;;;;4968403;28;20077;-81
2023/03/02 14:26:26;;;;;;;10.13;6.30;;;;;;;;;;4989317;28;20498;-81
2023/03/02 14:28:53;;;;;;;6.90;5.47;;;;;;;;;;4968947;28;20046;-81